Time;durP1;ratioP1;P1;durP2;ratioP2;P2;SDS_P1;SDS_P2;PMS_P1;PMS_P2;Temp;Humidity;BMP_temperature;BMP_pressure;BME280_temperature;BME280_humidity;BME280_pressure;Samples;Min_cycle;Max_cycle;Signal;HPM_P1;HPM_P2
2024/01/12 00:00:01;;;;;;;21.47;6.43;;;;;;;-0.83;100.00;102655.72;5944502;29;20024;-73
2024/01/12 00:03:29;;;;;;;33.30;8.30;;;;;;;-0.83;100.00;102647.03;5957458;29;20374;-74
2024/01/12 00:06:52;;;;;;;23.63;6.93;;;;;;;-0.81;100.00;102640.91;5952650;29;20059;-74
2024/01/12 00:10:05;;;;;;;29.02;6.90;;;;;;;-1.08;100.00;102606.69;5948784;29;20484;-73
2024/01/12 00:13:30;;;;;;;;;;;;;;;;;;;;;
2024/01/12 00:16:56;;;;;;;30.27;6.63;;;;;;;-0.86;100.00;102652.31;5955010;29;20111;-74
2024/01/12 00:19:51;;;;;;;30.75;6.30;;;;;;;-0.97;100.00;102630.78;5933449;29;20118;-74
2024/01/12 00:22:46;;;;;;;25.93;7.03;;;;;;;-0.89;100.00;102636.72;5952344;29;20032;-75
2024/01/12 00:25:42;;;;;;;26.30;6.70;;;;;;;-0.86;100.00;102631.47;5956221;29;20040;-73
2024/01/12 00:28:49;;;;;;;25.67;6.37;;;;;;;-0.83;100.00;102644.44;5951407;29;20024;-73
2024/01/12 00:31:53;;;;;;;29.45;6.97;;;;;;;-0.91;100.00;102622.88;5963704;29;20024;-73
2024/01/12 00:34:48;;;;;;;25.00;6.70;;;;;;;-0.85;100.00;102628.00;5952624;29;20424;-73
2024/01/12 00:37:43;;;;;;;29.73;7.43;;;;;;;-0.85;100.00;102630.59;5952829;29;20086;-74
2024/01/12 00:40:39;;;;;;;32.10;8.40;;;;;;;-0.79;100.00;102627.91;5958199;29;20135;-74
2024/01/12 00:43:34;;;;;;;28.33;8.20;;;;;;;-0.90;100.00;102616.81;5951910;29;20476;-74
2024/01/12 00:46:30;;;;;;;34.80;8.20;;;;;;;-0.84;100.00;102614.06;5955454;29;20111;-74
2024/01/12 00:49:25;;;;;;;37.30;7.88;;;;;;;-0.84;100.00;102620.16;5949509;29;20507;-73
2024/01/12 00:52:20;;;;;;;29.77;8.40;;;;;;;-0.87;100.00;102607.19;5953568;29;20031;-73
2024/01/12 00:55:16;;;;;;;28.13;8.23;;;;;;;-0.86;100.00;102610.63;5954532;29;20284;-74
2024/01/12 00:58:11;;;;;;;42.63;8.00;;;;;;;-0.78;100.00;102632.19;5945748;29;20550;-73
2024/01/12 01:01:06;;;;;;;33.17;9.33;;;;;;;-0.92;100.00;102597.72;5960524;29;20091;-74
2024/01/12 01:04:05;;;;;;;41.70;9.38;;;;;;;-0.74;100.00;102628.66;5950686;29;20300;-73
2024/01/12 01:07:01;;;;;;;38.00;11.40;;;;;;;-0.82;100.00;102612.31;5953554;29;20498;-74
2024/01/12 01:09:56;;;;;;;50.15;13.07;;;;;;;-0.74;100.00;102626.06;5953034;29;20474;-74
2024/01/12 01:12:52;;;;;;;46.40;9.88;;;;;;;-0.69;100.00;102632.03;5947078;29;20783;-74
2024/01/12 01:15:47;;;;;;;43.20;12.13;;;;;;;-0.68;100.00;102633.78;5952079;29;20039;-73
2024/01/12 01:18:43;;;;;;;45.42;11.48;;;;;;;-0.70;100.00;102630.31;5943877;29;20083;-73
2024/01/12 01:21:38;;;;;;;45.17;11.65;;;;;;;-0.74;100.00;102633.88;5957278;29;20055;-73
2024/01/12 01:24:33;;;;;;;49.13;10.53;;;;;;;-0.69;100.00;102642.47;5946495;29;20052;-73
2024/01/12 01:27:29;;;;;;;54.25;11.40;;;;;;;-0.72;100.00;102638.16;5945786;29;20040;-74
2024/01/12 01:30:24;;;;;;;47.43;10.87;;;;;;;-0.70;100.00;102645.94;5946040;29;20507;-73
2024/01/12 01:33:20;;;;;;;47.30;11.60;;;;;;;-0.64;100.00;102654.53;5952635;29;20051;-73
2024/01/12 01:36:15;;;;;;;53.53;12.23;;;;;;;-0.68;100.00;102639.81;5948299;29;20028;-72
2024/01/12 01:39:10;;;;;;;55.00;13.77;;;;;;;-0.65;100.00;102631.09;5947769;29;20048;-72
2024/01/12 01:42:05;;;;;;;51.43;11.83;;;;;;;-0.67;100.00;102640.69;5944936;29;20114;-72
2024/01/12 01:45:02;;;;;;;51.03;12.23;;;;;;;-0.56;100.00;102653.50;5947170;29;20055;-73
2024/01/12 01:47:57;;;;;;;54.85;12.43;;;;;;;-0.54;100.00;102651.75;5956116;29;20019;-73
2024/01/12 01:50:53;;;;;;;48.27;10.97;;;;;;;-0.58;100.00;102650.94;5953441;29;20043;-73
2024/01/12 01:53:49;;;;;;;40.88;10.73;;;;;;;-0.50;100.00;102659.47;5943699;29;20091;-72
2024/01/12 01:56:45;;;;;;;49.50;12.23;;;;;;;-0.53;100.00;102651.72;5964551;29;20459;-73
2024/01/12 01:59:41;;;;;;;48.05;12.70;;;;;;;-0.53;100.00;102643.91;5954103;29;20043;-72
2024/01/12 02:02:37;;;;;;;35.75;10.65;;;;;;;-0.50;100.00;102651.66;5954669;29;20361;-73
2024/01/12 02:05:34;;;;;;;43.13;10.88;;;;;;;-0.49;100.00;102642.94;5951285;29;20051;-73
2024/01/12 02:08:29;;;;;;;46.50;10.45;;;;;;;-0.58;100.00;102635.31;5952685;29;20039;-72
2024/01/12 02:11:25;;;;;;;49.27;11.13;;;;;;;-0.53;100.00;102635.22;5948982;29;20063;-71
2024/01/12 02:14:20;;;;;;;45.47;11.33;;;;;;;-0.52;100.00;102634.34;5942986;29;20046;-73
2024/01/12 02:17:16;;;;;;;36.83;11.55;;;;;;;-0.59;100.00;102636.19;5955050;29;20039;-71
2024/01/12 02:20:12;;;;;;;47.50;11.07;;;;;;;-0.52;100.00;102650.84;5954818;29;20032;-71
2024/01/12 02:23:07;;;;;;;49.77;12.90;;;;;;;-0.57;100.00;102644.81;5950824;29;20471;-71
2024/01/12 02:26:03;;;;;;;48.58;12.05;;;;;;;-0.56;100.00;102654.38;5947115;29;20028;-70
2024/01/12 02:29:00;;;;;;;45.33;10.35;;;;;;;-0.61;100.00;102638.84;5953241;29;20660;-71
2024/01/12 02:31:56;;;;;;;47.90;10.85;;;;;;;-0.58;100.00;102650.94;5954574;29;20087;-70
2024/01/12 02:34:51;;;;;;;59.38;11.90;;;;;;;-0.60;100.00;102642.31;5954165;29;20475;-72
2024/01/12 02:37:46;;;;;;;52.90;10.53;;;;;;;-0.65;100.00;102631.09;5952266;29;20391;-73
2024/01/12 02:40:42;;;;;;;45.67;10.30;;;;;;;-0.74;100.00;102628.66;5952649;29;20319;-71
2024/01/12 02:43:37;;;;;;;52.50;12.37;;;;;;;-0.72;100.00;102626.88;5955221;29;20039;-71
2024/01/12 02:46:32;;;;;;;34.97;9.67;;;;;;;-0.74;100.00;102623.47;5949655;29;20364;-71
2024/01/12 02:49:28;;;;;;;33.43;9.83;;;;;;;-0.74;100.00;102628.66;5952783;29;20439;-71
2024/01/12 02:52:23;;;;;;;33.77;8.80;;;;;;;-0.84;100.00;102630.56;5948022;29;20035;-71
2024/01/12 02:55:18;;;;;;;45.73;10.50;;;;;;;-0.82;100.00;102621.00;5950858;29;20043;-71
2024/01/12 02:58:13;;;;;;;30.53;9.67;;;;;;;-0.85;100.00;102621.06;5944680;29;20035;-71
2024/01/12 03:01:09;;;;;;;46.53;9.17;;;;;;;-0.91;100.00;102622.88;5953369;29;20036;-73
2024/01/12 03:04:04;;;;;;;49.13;11.13;;;;;;;-0.91;100.00;102622.88;5954768;29;20495;-71
2024/01/12 03:07:01;;;;;;;38.13;10.20;;;;;;;-0.86;100.00;102628.88;5952614;29;20122;-71
2024/01/12 03:09:56;;;;;;;40.45;9.98;;;;;;;-0.94;100.00;102607.31;5949091;29;20396;-71
2024/01/12 03:12:51;;;;;;;46.03;10.70;;;;;;;-0.87;100.00;102603.75;5948078;29;20040;-70
2024/01/12 03:15:47;;;;;;;46.33;10.57;;;;;;;-0.91;100.00;102599.44;5946977;29;20272;-72
2024/01/12 03:18:42;;;;;;;37.57;8.33;;;;;;;-0.86;100.00;102603.69;5948920;29;20110;-73
2024/01/12 03:21:37;;;;;;;45.70;10.37;;;;;;;-0.91;100.00;102602.91;5952003;29;20550;-72
2024/01/12 03:24:32;;;;;;;46.10;10.70;;;;;;;-0.90;100.00;102590.78;5943743;29;20111;-71
2024/01/12 03:27:28;;;;;;;49.03;11.23;;;;;;;-0.87;100.00;102586.34;5948773;29;20027;-72
2024/01/12 03:30:23;;;;;;;30.40;8.93;;;;;;;-0.84;100.00;102588.03;5945971;29;20059;-71
2024/01/12 03:33:18;;;;;;;51.77;10.87;;;;;;;-0.78;100.00;102598.34;5954445;29;20286;-70
2024/01/12 03:36:15;;;;;;;49.10;10.03;;;;;;;-0.78;100.00;102595.75;5949318;29;20396;-71
2024/01/12 03:39:10;;;;;;;42.17;10.20;;;;;;;-0.77;100.00;102592.25;5947889;29;20485;-72
2024/01/12 03:42:06;;;;;;;35.70;10.97;;;;;;;-0.77;100.00;102605.28;5942526;29;20090;-71
2024/01/12 03:45:01;;;;;;;40.05;11.30;;;;;;;-0.83;100.00;102606.25;5949273;29;20036;-71
2024/01/12 03:47:56;;;;;;;40.23;10.80;;;;;;;-0.85;100.00;102610.63;5946390;29;20399;-70
2024/01/12 03:50:52;;;;;;;47.50;11.03;;;;;;;-0.85;100.00;102614.97;5945336;29;20039;-70
2024/01/12 03:53:47;;;;;;;41.67;9.87;;;;;;;-0.94;100.00;102609.91;5952666;29;20400;-71
2024/01/12 03:56:42;;;;;;;38.33;9.63;;;;;;;-0.89;100.00;102618.50;5952877;29;20042;-71
2024/01/12 03:59:38;;;;;;;47.27;9.67;;;;;;;-0.89;100.00;102621.09;5950323;29;20036;-72
2024/01/12 04:02:33;;;;;;;44.97;10.60;;;;;;;-0.85;100.00;102626.25;5947484;29;20051;-70
2024/01/12 04:05:28;;;;;;;47.03;10.40;;;;;;;-0.87;100.00;102622.78;5947398;29;20356;-70
2024/01/12 04:08:24;;;;;;;38.25;9.48;;;;;;;-0.93;100.00;102601.22;5950629;29;20376;-71
2024/01/12 04:11:21;;;;;;;40.67;9.33;;;;;;;-0.86;100.00;102608.03;5949580;29;20047;-69
2024/01/12 04:14:16;;;;;;;34.47;10.23;;;;;;;-0.92;100.00;102608.13;5942688;29;20036;-70
2024/01/12 04:17:12;;;;;;;31.37;9.07;;;;;;;-1.02;100.00;102607.44;5941064;29;20472;-71
2024/01/12 04:20:09;;;;;;;36.13;10.02;;;;;;;-0.95;100.00;102613.44;5950728;29;20035;-71
2024/01/12 04:23:04;;;;;;;44.80;10.65;;;;;;;-1.01;100.00;102603.97;5942646;29;20032;-72
2024/01/12 04:25:59;;;;;;;41.77;10.73;;;;;;;-1.02;100.00;102597.03;5949788;29;20502;-72
2024/01/12 04:28:56;;;;;;;41.92;10.63;;;;;;;-1.06;100.00;102591.91;5957502;29;20079;-72
2024/01/12 04:31:52;;;;;;;47.75;11.85;;;;;;;-1.09;100.00;102589.38;5943087;29;20040;-71
2024/01/12 04:34:47;;;;;;;44.20;10.80;;;;;;;-0.99;100.00;102590.91;5957133;29;20042;-71
2024/01/12 04:37:42;;;;;;;53.63;12.10;;;;;;;-1.04;100.00;102562.38;5956335;29;20364;-71
2024/01/12 04:40:39;;;;;;;43.37;9.77;;;;;;;-1.05;100.00;102565.00;5956039;29;20043;-71
2024/01/12 04:43:34;;;;;;;39.13;10.65;;;;;;;-1.08;100.00;102563.31;5953958;29;20032;-69
2024/01/12 04:46:30;;;;;;;46.37;10.43;;;;;;;-1.05;100.00;102559.78;5947582;29;20191;-70
2024/01/12 04:49:25;;;;;;;35.75;10.40;;;;;;;-1.06;100.00;102550.28;5955514;29;20286;-70
2024/01/12 04:52:20;;;;;;;37.23;9.50;;;;;;;-0.98;100.00;102559.63;5957523;29;20036;-71
2024/01/12 04:55:16;;;;;;;43.07;10.53;;;;;;;-1.07;100.00;102540.75;5956105;29;20036;-70
2024/01/12 04:58:11;;;;;;;43.73;10.47;;;;;;;-1.03;100.00;102547.63;5956879;29;20031;-71
2024/01/12 05:01:06;;;;;;;46.30;11.35;;;;;;;-1.03;100.00;102542.41;5957490;29;20287;-72
2024/01/12 05:04:02;;;;;;;42.13;9.87;;;;;;;-1.01;100.00;102536.28;5941149;29;20059;-71
2024/01/12 05:06:57;;;;;;;37.70;8.70;;;;;;;-1.00;100.00;102534.53;5945868;29;20032;-71
2024/01/12 05:09:52;;;;;;;46.73;11.10;;;;;;;-0.95;100.00;102561.34;5948616;29;20321;-71
2024/01/12 05:12:47;;;;;;;40.57;10.00;;;;;;;-0.99;100.00;102552.75;5950519;29;20044;-72
2024/01/12 05:15:43;;;;;;;37.43;9.17;;;;;;;-0.92;100.00;102556.94;5949253;29;20035;-71
2024/01/12 05:18:38;;;;;;;28.70;7.97;;;;;;;-0.97;100.00;102550.09;5949521;29;20040;-71
2024/01/12 05:21:33;;;;;;;38.83;10.33;;;;;;;-1.02;100.00;102549.31;5956369;29;20038;-71
2024/01/12 05:24:29;;;;;;;42.57;11.00;;;;;;;-0.95;100.00;102561.34;5949905;29;20047;-70
2024/01/12 05:27:24;;;;;;;41.93;9.40;;;;;;;-0.95;100.00;102556.16;5951906;29;20031;-71
2024/01/12 05:30:19;;;;;;;46.33;10.47;;;;;;;-0.89;100.00;102561.22;5952636;29;20098;-71
2024/01/12 05:33:15;;;;;;;41.60;10.17;;;;;;;-0.86;100.00;102561.16;5949122;29;20088;-71
2024/01/12 05:36:10;;;;;;;37.85;10.75;;;;;;;-0.87;100.00;102554.28;5955078;29;20415;-70
2024/01/12 05:39:06;;;;;;;38.60;9.67;;;;;;;-0.89;100.00;102558.63;5952858;29;20039;-72
2024/01/12 05:42:01;;;;;;;43.27;11.37;;;;;;;-0.97;100.00;102542.28;5948139;29;20106;-70
2024/01/12 05:44:56;;;;;;;41.17;10.53;;;;;;;-0.88;100.00;102556.00;5951902;29;20272;-70
2024/01/12 05:47:51;;;;;;;34.10;9.50;;;;;;;-0.88;100.00;102562.94;5944498;29;20035;-71
2024/01/12 05:50:47;;;;;;;42.77;10.13;;;;;;;-0.93;100.00;102556.97;5956841;29;20044;-71
2024/01/12 05:53:42;;;;;;;37.57;8.17;;;;;;;-0.88;100.00;102568.16;5956969;29;20031;-72
2024/01/12 05:56:37;;;;;;;39.08;10.43;;;;;;;-0.95;100.00;102556.97;5956553;29;20043;-71
2024/01/12 05:59:33;;;;;;;32.80;8.70;;;;;;;-0.88;100.00;102569.03;5947954;29;20182;-70
2024/01/12 06:02:28;;;;;;;41.75;11.05;;;;;;;-0.92;100.00;102559.53;5954819;29;20036;-70
2024/01/12 06:05:23;;;;;;;32.10;9.70;;;;;;;-0.88;100.00;102573.38;5938433;29;20032;-70
2024/01/12 06:08:19;;;;;;;40.27;10.20;;;;;;;-0.92;100.00;102566.47;5952655;29;20167;-70
2024/01/12 06:11:14;;;;;;;44.58;12.20;;;;;;;-0.97;100.00;102568.31;5947881;29;20586;-71
2024/01/12 06:14:10;;;;;;;41.77;11.63;;;;;;;-0.97;100.00;102557.91;5953318;29;20044;-69
2024/01/12 06:17:05;;;;;;;52.33;12.02;;;;;;;-0.94;100.00;102550.03;5944060;29;20031;-69
2024/01/12 06:20:01;;;;;;;47.70;12.03;;;;;;;-0.92;100.00;102561.28;5955352;29;20051;-71
2024/01/12 06:22:56;;;;;;;44.33;11.23;;;;;;;-0.88;100.00;102571.63;5953441;29;20086;-72
2024/01/12 06:25:52;;;;;;;49.08;11.35;;;;;;;-0.90;100.00;102568.19;5949384;29;20279;-71
2024/01/12 06:28:47;;;;;;;45.53;12.27;;;;;;;-0.89;100.00;102561.22;5954281;29;20031;-71
2024/01/12 06:31:42;;;;;;;42.17;10.43;;;;;;;-0.81;100.00;102575.81;5949221;29;20040;-71
2024/01/12 06:34:58;;;;;;;45.88;10.88;;;;;;;-0.80;100.00;102561.94;5951532;29;20027;-70
2024/01/12 06:37:53;;;;;;;53.67;12.30;;;;;;;-0.88;100.00;102549.94;5949860;29;20032;-70
2024/01/12 06:40:49;;;;;;;45.03;12.13;;;;;;;-0.79;100.00;102554.97;5952241;29;20067;-70
2024/01/12 06:43:44;;;;;;;48.17;11.70;;;;;;;-0.82;100.00;102550.69;5950560;29;20390;-71
2024/01/12 06:46:43;;;;;;;48.73;13.73;;;;;;;-0.82;100.00;102557.63;5951578;29;20055;-71
2024/01/12 06:49:42;;;;;;;47.53;13.77;;;;;;;-0.81;100.00;102543.72;5950058;29;20058;-71
2024/01/12 06:52:37;;;;;;;41.97;12.25;;;;;;;-0.79;100.00;102557.59;5943323;29;20039;-71
2024/01/12 06:55:33;;;;;;;43.77;11.23;;;;;;;-0.82;100.00;102555.91;5945316;29;20064;-70
2024/01/12 06:58:28;;;;;;;41.00;11.03;;;;;;;-0.85;100.00;102548.16;5952069;29;20613;-70
2024/01/12 07:01:23;;;;;;;44.33;10.50;;;;;;;-0.79;100.00;102553.22;5959456;29;20031;-70
2024/01/12 07:04:19;;;;;;;48.13;12.20;;;;;;;-0.83;100.00;102542.88;5943436;29;20035;-71
2024/01/12 07:07:14;;;;;;;43.30;11.77;;;;;;;-0.84;100.00;102562.00;5950314;29;20028;-70
2024/01/12 07:10:13;;;;;;;44.57;12.93;;;;;;;-0.83;100.00;102555.91;5942912;29;20028;-70
2024/01/12 07:13:08;;;;;;;49.40;15.15;;;;;;;-0.88;100.00;102555.16;5947655;29;20491;-71
2024/01/12 07:16:04;;;;;;;47.80;13.17;;;;;;;-0.86;100.00;102556.81;5953682;29;20043;-70
2024/01/12 07:18:59;;;;;;;47.10;12.45;;;;;;;-0.86;100.00;102548.16;5950315;29;20119;-71
2024/01/12 07:21:54;;;;;;;37.93;11.47;;;;;;;-0.79;100.00;102568.00;5953599;29;20036;-71
2024/01/12 07:24:50;;;;;;;43.83;12.13;;;;;;;-0.81;100.00;102559.34;5950405;28;20031;-71
2024/01/12 07:27:45;;;;;;;55.77;14.13;;;;;;;-0.75;100.00;102580.06;5950297;29;20039;-71
2024/01/12 07:30:40;;;;;;;41.30;11.03;;;;;;;-0.80;100.00;102574.94;5949456;29;20779;-72
2024/01/12 07:33:36;;;;;;;44.10;13.45;;;;;;;-0.78;100.00;102569.69;5954103;29;20127;-71
2024/01/12 07:36:31;;;;;;;53.50;13.73;;;;;;;-0.82;100.00;102563.72;5948766;29;20039;-71
2024/01/12 07:39:26;;;;;;;44.30;11.83;;;;;;;-0.76;100.00;102567.94;5953524;29;20439;-72
2024/01/12 07:42:22;;;;;;;54.93;12.70;;;;;;;-0.82;100.00;102558.50;5954466;29;20074;-71
2024/01/12 07:45:17;;;;;;;48.60;11.90;;;;;;;-0.78;100.00;102561.88;5950271;29;20488;-70
2024/01/12 07:48:12;;;;;;;43.57;10.73;;;;;;;-0.80;100.00;102571.47;5951528;29;20032;-70
2024/01/12 07:51:08;;;;;;;40.27;11.83;;;;;;;-0.87;100.00;102565.50;5949246;29;20276;-71
2024/01/12 07:54:03;;;;;;;34.93;10.90;;;;;;;-0.79;100.00;102568.00;5944832;29;20035;-70
2024/01/12 07:56:58;;;;;;;38.93;11.43;;;;;;;-0.79;100.00;102579.25;5951386;29;20035;-72
2024/01/12 07:59:55;;;;;;;36.00;10.57;;;;;;;-0.83;100.00;102571.53;5950403;29;20031;-70
2024/01/12 08:02:54;;;;;;;33.67;10.13;;;;;;;-0.78;100.00;102580.13;5953134;29;20555;-72
2024/01/12 08:05:50;;;;;;;41.67;11.43;;;;;;;-0.83;100.00;102561.13;5954903;29;20050;-71
2024/01/12 08:08:46;;;;;;;41.15;12.13;;;;;;;-0.79;100.00;102562.78;5955496;29;20394;-71
2024/01/12 08:11:41;;;;;;;42.65;10.20;;;;;;;-0.71;100.00;102571.31;5957162;29;20038;-71
2024/01/12 08:14:36;;;;;;;45.70;12.17;;;;;;;-0.71;100.00;102573.94;5958317;29;20032;-70
2024/01/12 08:17:32;;;;;;;44.23;11.40;;;;;;;-0.74;100.00;102571.38;5954062;29;20035;-71
2024/01/12 08:20:27;;;;;;;40.13;10.90;;;;;;;-0.69;100.00;102578.22;5955384;29;20294;-71
2024/01/12 08:23:22;;;;;;;34.87;10.93;;;;;;;-0.61;100.00;102567.66;5958386;29;20028;-71
2024/01/12 08:26:19;;;;;;;41.03;10.20;;;;;;;-0.64;100.00;102563.34;5957222;29;20115;-71
2024/01/12 08:29:14;;;;;;;39.38;11.00;;;;;;;-0.56;100.00;102560.59;5957005;29;20151;-72
2024/01/12 08:32:09;;;;;;;43.03;11.30;;;;;;;-0.59;100.00;102558.03;5949871;29;20032;-72
2024/01/12 08:35:05;;;;;;;37.30;11.27;;;;;;;-0.71;100.00;102534.88;5958278;29;20365;-71
2024/01/12 08:38:00;;;;;;;39.67;12.70;;;;;;;-0.57;100.00;102545.84;5954656;29;20032;-70
2024/01/12 08:40:55;;;;;;;42.33;11.10;;;;;;;-0.59;100.00;102534.59;5952728;29;20067;-72
2024/01/12 08:43:53;;;;;;;37.40;12.32;;;;;;;-0.62;100.00;102514.69;5955023;29;20023;-71
2024/01/12 08:46:48;;;;;;;41.70;12.27;;;;;;;-0.58;100.00;102525.03;5952392;29;20399;-72
2024/01/12 08:49:43;;;;;;;40.53;11.50;;;;;;;-0.58;100.00;102546.75;5955848;29;20039;-71
2024/01/12 08:52:38;;;;;;;56.23;14.27;;;;;;;-0.63;100.00;102543.38;5953911;29;20483;-70
2024/01/12 08:55:34;;;;;;;36.13;12.20;;;;;;;-0.63;100.00;102543.38;5956198;29;20039;-72
2024/01/12 08:58:29;;;;;;;31.63;10.82;;;;;;;-0.68;100.00;102532.19;5949199;28;20111;-70
2024/01/12 09:01:24;;;;;;;45.73;12.97;;;;;;;-0.61;100.00;102544.19;5945845;29;20551;-73
2024/01/12 09:04:20;;;;;;;37.77;12.27;;;;;;;-0.63;100.00;102540.78;5954366;29;20126;-71
2024/01/12 09:07:15;;;;;;;45.00;12.40;;;;;;;-0.68;100.00;102529.59;5947638;29;20032;-72
2024/01/12 09:10:11;;;;;;;39.90;10.63;;;;;;;-0.62;100.00;102527.72;5954464;29;20035;-72
2024/01/12 09:13:06;;;;;;;40.35;12.20;;;;;;;-0.58;100.00;102538.94;5946717;29;20035;-71
2024/01/12 09:16:02;;;;;;;36.70;11.23;;;;;;;-0.57;100.00;102538.03;5954613;29;20038;-71
2024/01/12 09:18:58;;;;;;;36.50;11.88;;;;;;;-0.54;100.00;102540.56;5956188;29;20031;-71
2024/01/12 09:21:53;;;;;;;38.77;11.00;;;;;;;-0.55;100.00;102532.81;5949941;29;20032;-71
2024/01/12 09:24:48;;;;;;;33.37;11.00;;;;;;;-0.50;100.00;102536.16;5951842;29;20064;-71
2024/01/12 09:27:44;;;;;;;32.17;10.77;;;;;;;-0.52;100.00;102528.41;5950981;29;20404;-71
2024/01/12 09:30:39;;;;;;;39.87;11.77;;;;;;;-0.48;100.00;102527.44;5952488;29;20028;-70
2024/01/12 09:33:34;;;;;;;41.70;11.27;;;;;;;-0.44;100.00;102534.31;5947976;29;20457;-70
2024/01/12 09:36:30;;;;;;;36.83;9.70;;;;;;;-0.50;100.00;102523.16;5952340;29;20418;-71
2024/01/12 09:39:25;;;;;;;38.10;10.20;;;;;;;-0.47;100.00;102539.59;5944534;29;20039;-71
2024/01/12 09:42:21;;;;;;;35.87;11.53;;;;;;;-0.51;100.00;102529.22;5955982;29;20032;-71
2024/01/12 09:45:17;;;;;;;30.90;8.75;;;;;;;-0.42;100.00;102535.13;5952966;29;20024;-71
2024/01/12 09:48:12;;;;;;;38.67;10.95;;;;;;;-0.45;100.00;102529.13;5946505;29;20058;-71
2024/01/12 09:51:08;;;;;;;30.60;9.77;;;;;;;-0.49;100.00;102525.72;5947511;29;20087;-70
2024/01/12 09:54:03;;;;;;;32.83;9.03;;;;;;;-0.41;100.00;102528.19;5949926;29;20271;-71
2024/01/12 09:56:59;;;;;;;39.77;9.13;;;;;;;-0.35;100.00;102536.72;5954846;29;20698;-70
2024/01/12 10:00:00;;;;;;;32.60;10.77;;;;;;;-0.46;100.00;102532.63;5953720;29;20276;-70
2024/01/12 10:02:58;;;;;;;30.67;8.93;;;;;;;-0.45;100.00;102522.16;5953662;29;20139;-71
2024/01/12 10:05:53;;;;;;;34.63;10.30;;;;;;;-0.35;100.00;102528.03;5949604;29;20376;-70
2024/01/12 10:08:48;;;;;;;29.53;8.43;;;;;;;-0.35;100.00;102539.31;5955766;29;20040;-70
2024/01/12 10:11:45;;;;;;;26.57;7.87;;;;;;;-0.34;100.00;102529.75;5955730;29;20298;-70
2024/01/12 10:14:40;;;;;;;28.90;9.13;;;;;;;-0.39;100.00;102516.84;5956222;29;20036;-70
2024/01/12 10:17:36;;;;;;;32.03;9.47;;;;;;;-0.40;100.00;102507.28;5954479;29;20112;-70
2024/01/12 10:20:36;;;;;;;27.75;9.23;;;;;;;-0.46;100.00;102488.34;5950627;29;20032;-70
2024/01/12 10:23:31;;;;;;;24.08;8.55;;;;;;;-0.33;100.00;102503.69;5951386;29;20075;-70
2024/01/12 10:26:26;;;;;;;27.20;8.80;;;;;;;-0.32;100.00;102502.78;5951823;29;20032;-70
2024/01/12 10:29:22;;;;;;;24.87;8.67;;;;;;;-0.30;100.00;102500.97;5954510;29;20038;-71
2024/01/12 10:32:21;;;;;;;17.77;6.67;;;;;;;-0.24;100.00;102503.47;5948436;29;20038;-70
2024/01/12 10:35:17;;;;;;;27.58;8.80;;;;;;;-0.17;100.00;102492.03;5946668;29;20102;-71
2024/01/12 10:38:14;;;;;;;26.42;8.38;;;;;;;-0.16;100.00;102488.50;5949099;29;20043;-71
2024/01/12 10:41:10;;;;;;;20.83;7.47;;;;;;;-0.08;100.00;102476.16;5952252;29;20075;-70
2024/01/12 10:44:06;;;;;;;25.35;8.02;;;;;;;-0.11;100.00;102476.22;5949763;29;20036;-70
2024/01/12 10:47:05;;;;;;;19.98;8.40;;;;;;;-0.06;100.00;102479.59;5942815;29;20059;-70
2024/01/12 10:50:08;;;;;;;26.98;8.18;;;;;;;-0.04;100.00;102476.94;5941242;29;20039;-70
2024/01/12 10:53:11;;;;;;;25.30;8.40;;;;;;;0.03;100.00;102477.69;5948881;29;20067;-70
2024/01/12 10:56:07;;;;;;;22.73;8.25;;;;;;;-0.01;100.00;102472.53;5941395;29;20028;-70
2024/01/12 10:59:04;;;;;;;26.95;8.27;;;;;;;0.12;100.00;102480.06;5948601;29;20043;-72
2024/01/12 11:02:00;;;;;;;23.48;7.32;;;;;;;0.15;100.00;102482.59;5947444;29;20063;-71
2024/01/12 11:04:57;;;;;;;26.60;7.68;;;;;;;0.08;100.00;102466.25;5948018;29;20070;-71
2024/01/12 11:07:55;;;;;;;19.65;6.43;;;;;;;0.26;100.00;102464.94;5951418;29;20130;-70
2024/01/12 11:10:53;;;;;;;19.73;7.97;;;;;;;0.24;100.00;102462.38;5952312;29;20656;-70
2024/01/12 11:13:49;;;;;;;15.80;6.90;;;;;;;0.30;100.00;102471.81;5950172;29;20036;-71
2024/01/12 11:16:44;;;;;;;19.85;6.88;;;;;;;0.34;100.00;102476.03;5951177;29;20066;-70
2024/01/12 11:19:40;;;;;;;19.80;7.53;;;;;;;0.29;100.00;102473.56;5945009;29;20040;-70
2024/01/12 11:22:37;;;;;;;20.77;7.47;;;;;;;0.41;100.00;102480.19;5952715;29;20635;-71
2024/01/12 11:25:32;;;;;;;24.67;8.02;;;;;;;0.40;100.00;102465.47;5950142;29;20286;-71
2024/01/12 11:28:36;;;;;;;18.03;5.80;;;;;;;0.53;100.00;102445.97;5946327;29;20032;-71
2024/01/12 11:31:31;;;;;;;23.48;7.57;;;;;;;0.58;100.00;102441.50;5948088;29;20275;-70
2024/01/12 11:34:30;;;;;;;21.97;7.23;;;;;;;0.58;100.00;102446.72;5950815;29;20059;-71
2024/01/12 11:37:26;;;;;;;15.95;6.45;;;;;;;0.74;100.00;102449.75;5957045;29;20055;-71
2024/01/12 11:40:26;;;;;;;17.80;6.25;;;;;;;0.62;100.00;102427.47;5952980;29;20479;-70
2024/01/12 11:43:26;;;;;;;15.98;6.38;;;;;;;0.84;100.00;102451.25;5969846;29;20067;-71
2024/01/12 11:46:25;;;;;;;17.33;7.10;;;;;;;0.76;100.00;102446.22;5955040;29;20036;-71
2024/01/12 11:49:20;;;;;;;19.75;6.50;;;;;;;0.75;100.00;102444.53;5947088;29;20415;-70
2024/01/12 11:52:15;;;;;;;29.02;10.30;;;;;;;0.79;100.00;102420.03;5957533;29;20042;-71
2024/01/12 11:55:11;;;;;;;19.80;6.67;;;;;;;0.75;100.00;102410.59;5952967;29;20447;-70
2024/01/12 11:58:06;;;;;;;24.70;6.73;;;;;;;0.79;100.00;102400.94;5956017;29;20035;-70
2024/01/12 12:01:02;;;;;;;17.97;6.00;;;;;;;0.85;100.00;102392.91;5956810;29;20287;-70
2024/01/12 12:03:57;;;;;;;19.50;6.70;;;;;;;0.88;100.00;102388.47;5957274;29;20035;-71
2024/01/12 12:06:53;;;;;;;23.55;7.57;;;;;;;0.96;100.00;102394.31;5953702;29;20028;-72
2024/01/12 12:09:48;;;;;;;20.20;7.15;;;;;;;1.03;100.00;102392.41;5954993;29;20059;-70
2024/01/12 12:12:43;;;;;;;21.03;7.77;;;;;;;1.03;100.00;102388.00;5940963;29;20749;-71
2024/01/12 12:15:39;;;;;;;23.37;8.50;;;;;;;0.96;100.00;102388.22;5950431;29;20036;-70
2024/01/12 12:18:34;;;;;;;19.50;7.67;;;;;;;0.96;100.00;102386.47;5954980;29;20040;-72
2024/01/12 12:21:30;;;;;;;19.20;6.93;;;;;;;0.98;100.00;102384.66;5954243;29;20058;-72
2024/01/12 12:24:25;;;;;;;20.27;7.72;;;;;;;0.82;100.00;102378.19;5954774;29;20392;-71
2024/01/12 12:27:21;;;;;;;22.42;8.02;;;;;;;0.77;100.00;102372.22;5949738;29;20051;-72
2024/01/12 12:30:17;;;;;;;16.45;6.00;;;;;;;0.71;100.00;102369.78;5955853;29;20035;-72
2024/01/12 12:33:12;;;;;;;22.67;6.53;;;;;;;0.70;100.00;102378.53;5952623;29;20040;-72
2024/01/12 12:36:09;;;;;;;18.57;7.30;;;;;;;0.70;100.00;102375.94;5949197;29;20027;-71
2024/01/12 12:39:05;;;;;;;24.95;8.52;;;;;;;0.57;100.00;102374.56;5947976;29;20099;-72
2024/01/12 12:42:01;;;;;;;21.15;7.78;;;;;;;0.53;100.00;102365.94;5953341;29;20054;-71
2024/01/12 12:44:56;;;;;;;17.30;7.07;;;;;;;0.48;100.00;102365.22;5943449;29;20028;-70
2024/01/12 12:47:51;;;;;;;20.37;7.07;;;;;;;0.47;100.00;102368.72;5949049;29;20497;-71
2024/01/12 12:50:48;;;;;;;24.60;7.20;;;;;;;0.46;100.00;102353.94;5949743;29;20498;-71
2024/01/12 12:53:43;;;;;;;22.52;8.90;;;;;;;0.40;100.00;102342.84;5954895;29;20463;-70
2024/01/12 12:56:39;;;;;;;19.93;6.97;;;;;;;0.41;100.00;102341.91;5955287;29;20031;-71
2024/01/12 12:59:37;;;;;;;23.52;7.22;;;;;;;0.41;100.00;102334.94;5946402;29;20280;-71
2024/01/12 13:02:32;;;;;;;24.73;7.70;;;;;;;0.35;100.00;102329.94;5951233;29;20403;-70
2024/01/12 13:05:27;;;;;;;24.67;7.30;;;;;;;0.47;100.00;102326.09;5957205;29;20028;-71
2024/01/12 13:08:23;;;;;;;22.83;6.87;;;;;;;0.46;100.00;102325.25;5956201;29;20374;-71
2024/01/12 13:11:19;;;;;;;19.70;7.22;;;;;;;0.43;100.00;102320.13;5943259;29;20507;-71
2024/01/12 13:14:14;;;;;;;21.35;7.47;;;;;;;0.37;100.00;102317.69;5953411;29;20051;-72
2024/01/12 13:17:11;;;;;;;23.92;6.45;;;;;;;0.44;100.00;102329.66;5944443;29;20068;-72